Time;durP1;ratioP1;P1;durP2;ratioP2;P2;SDS_P1;SDS_P2;PMS_P1;PMS_P2;Temp;Humidity;BMP_temperature;BMP_pressure;BME280_temperature;BME280_humidity;BME280_pressure;Samples;Min_cycle;Max_cycle;Signal;HPM_P1;HPM_P2
2023/07/18 00:00:31;;;;;;;;;2.00;1.00;;;;;;;;4971535;28;45882;-80
2023/07/18 00:02:56;;;;;;;;;2.00;1.00;;;;;;;;4971571;28;45400;-80
2023/07/18 00:05:22;;;;;;;;;1.33;1.33;;;;;;;;4954356;28;45838;-79
2023/07/18 00:07:48;;;;;;;;;3.00;3.00;;;;;;;;4954095;28;46266;-80
2023/07/18 00:10:14;;;;;;;;;2.00;2.00;;;;;;;;4975067;28;46329;-80
2023/07/18 00:12:40;;;;;;;;;1.00;1.00;;;;;;;;4975128;28;46034;-79
2023/07/18 00:15:06;;;;;;;;;1.33;1.33;;;;;;;;4957021;28;45879;-80
2023/07/18 00:17:32;;;;;;;;;3.00;1.33;;;;;;;;4971549;28;46830;-80
2023/07/18 00:19:58;;;;;;;;;2.00;2.00;;;;;;;;4972103;28;45969;-82
2023/07/18 00:22:24;;;;;;;;;2.67;2.67;;;;;;;;4974929;28;45435;-81
2023/07/18 00:24:49;;;;;;;;;1.00;1.00;;;;;;;;4993660;28;45833;-81
2023/07/18 00:27:16;;;;;;;;;3.33;2.33;;;;;;;;4960747;28;46358;-80
2023/07/18 00:29:42;;;;;;;;;3.00;3.00;;;;;;;;4983318;28;45698;-84
2023/07/18 00:32:07;;;;;;;;;2.00;2.00;;;;;;;;4959338;28;45817;-82
2023/07/18 00:34:33;;;;;;;;;2.00;2.00;;;;;;;;4956246;28;45571;-82
2023/07/18 00:36:58;;;;;;;;;0.00;0.00;;;;;;;;4955574;28;47048;-80
2023/07/18 00:39:23;;;;;;;;;1.33;1.33;;;;;;;;4972433;28;47216;-81
2023/07/18 00:41:49;;;;;;;;;4.00;2.00;;;;;;;;4974302;28;45519;-81
2023/07/18 00:44:14;;;;;;;;;1.00;1.00;;;;;;;;4960416;28;45857;-72
2023/07/18 00:46:39;;;;;;;;;3.00;2.00;;;;;;;;4955402;28;46050;-81
2023/07/18 00:49:05;;;;;;;;;2.33;1.33;;;;;;;;4961775;28;47087;-81
2023/07/18 00:51:30;;;;;;;;;5.00;2.00;;;;;;;;4970606;28;45726;-81
2023/07/18 00:53:56;;;;;;;;;1.67;1.67;;;;;;;;4974252;28;45967;-79
2023/07/18 00:56:22;;;;;;;;;4.00;2.00;;;;;;;;4971075;28;45456;-81
2023/07/18 00:58:48;;;;;;;;;3.00;2.00;;;;;;;;4968349;28;47023;-80
2023/07/18 01:01:13;;;;;;;;;3.00;1.00;;;;;;;;4956438;28;45725;-81
2023/07/18 01:03:38;;;;;;;;;4.00;2.00;;;;;;;;4990847;28;45456;-81
2023/07/18 01:06:05;;;;;;;;;2.00;2.00;;;;;;;;4977552;28;45945;-80
2023/07/18 01:08:30;;;;;;;;;2.33;2.00;;;;;;;;4990921;28;46784;-81
2023/07/18 01:10:55;;;;;;;;;2.00;2.00;;;;;;;;4975300;28;45878;-80
2023/07/18 01:13:20;;;;;;;;;3.00;3.00;;;;;;;;4972639;28;45869;-80
2023/07/18 01:15:46;;;;;;;;;5.00;4.00;;;;;;;;4971846;28;45600;-78
2023/07/18 01:18:13;;;;;;;;;3.00;3.00;;;;;;;;4971591;28;46002;-80
2023/07/18 01:20:38;;;;;;;;;3.33;2.00;;;;;;;;4954498;28;46429;-82
2023/07/18 01:23:03;;;;;;;;;7.00;6.67;;;;;;;;4965629;28;45512;-80
2023/07/18 01:25:30;;;;;;;;;2.00;2.00;;;;;;;;4977295;28;45596;-80
2023/07/18 01:27:56;;;;;;;;;5.00;4.00;;;;;;;;4972081;28;45550;-81
2023/07/18 01:30:22;;;;;;;;;4.00;4.00;;;;;;;;4970473;28;45591;-80
2023/07/18 01:32:48;;;;;;;;;6.00;2.33;;;;;;;;4970983;28;45715;-82
2023/07/18 01:35:14;;;;;;;;;2.33;2.00;;;;;;;;4983394;28;45411;-81
2023/07/18 01:37:40;;;;;;;;;3.67;2.33;;;;;;;;4979694;28;45848;-82
2023/07/18 01:40:06;;;;;;;;;3.67;3.00;;;;;;;;4975982;28;45587;-80
2023/07/18 01:42:32;;;;;;;;;4.67;2.33;;;;;;;;4981432;28;45443;-80
2023/07/18 01:44:57;;;;;;;;;3.67;3.67;;;;;;;;4970157;28;45771;-80
2023/07/18 01:47:23;;;;;;;;;4.00;2.33;;;;;;;;4970564;28;46438;-83
2023/07/18 01:49:48;;;;;;;;;6.33;6.33;;;;;;;;4980077;28;45437;-81
2023/07/18 01:52:13;;;;;;;;;3.33;2.00;;;;;;;;4953596;28;45884;-80
2023/07/18 01:54:39;;;;;;;;;4.00;3.00;;;;;;;;4975169;28;46088;-80
2023/07/18 01:57:04;;;;;;;;;18.00;13.33;;;;;;;;4979023;28;45488;-83
2023/07/18 01:59:30;;;;;;;;;7.33;6.33;;;;;;;;4976206;28;45739;-80
2023/07/18 02:01:56;;;;;;;;;9.33;6.00;;;;;;;;4981043;28;45957;-81
2023/07/18 02:04:21;;;;;;;;;7.33;6.00;;;;;;;;4985024;28;45776;-80
2023/07/18 02:06:46;;;;;;;;;4.67;3.33;;;;;;;;4971147;28;45678;-80
2023/07/18 02:09:11;;;;;;;;;8.00;6.33;;;;;;;;4953995;28;45564;-80
2023/07/18 02:11:37;;;;;;;;;5.67;5.67;;;;;;;;4979577;28;45444;-80
2023/07/18 02:14:03;;;;;;;;;7.33;6.00;;;;;;;;4973072;28;45927;-73
2023/07/18 02:16:28;;;;;;;;;5.67;5.67;;;;;;;;4966124;28;46498;-74
2023/07/18 02:18:53;;;;;;;;;6.33;5.00;;;;;;;;4946453;28;45873;-73
2023/07/18 02:21:18;;;;;;;;;12.00;7.67;;;;;;;;4953971;28;45778;-73
2023/07/18 02:23:44;;;;;;;;;5.67;4.67;;;;;;;;4953434;28;47001;-72
2023/07/18 02:26:09;;;;;;;;;6.00;4.00;;;;;;;;4953268;28;46625;-73
2023/07/18 02:28:35;;;;;;;;;6.67;4.00;;;;;;;;4971497;28;45678;-72
2023/07/18 02:31:00;;;;;;;;;4.33;4.33;;;;;;;;4971973;28;45408;-73
2023/07/18 02:33:25;;;;;;;;;6.00;4.00;;;;;;;;4971507;28;46000;-72
2023/07/18 02:35:51;;;;;;;;;8.00;5.67;;;;;;;;4972441;28;45768;-73
2023/07/18 02:38:16;;;;;;;;;6.00;5.00;;;;;;;;4969298;28;45336;-73
2023/07/18 02:40:42;;;;;;;;;8.00;6.00;;;;;;;;4973236;28;45865;-74
2023/07/18 02:43:07;;;;;;;;;4.33;3.67;;;;;;;;4956463;28;45944;-74
2023/07/18 02:45:32;;;;;;;;;5.33;5.33;;;;;;;;4951480;28;48109;-72
2023/07/18 02:47:57;;;;;;;;;6.33;5.00;;;;;;;;4953178;28;45306;-73
2023/07/18 02:50:26;;;;;;;;;6.33;5.00;;;;;;;;4972099;28;45935;-73
2023/07/18 02:52:51;;;;;;;;;8.33;6.33;;;;;;;;4971586;28;45615;-73
2023/07/18 02:55:16;;;;;;;;;6.00;6.00;;;;;;;;4970805;28;46151;-71
2023/07/18 02:57:42;;;;;;;;;6.33;5.00;;;;;;;;4970896;28;45547;-73
2023/07/18 03:00:19;;;;;;;;;6.00;5.00;;;;;;;;4972114;28;45908;-73
2023/07/18 03:02:45;;;;;;;;;4.00;4.00;;;;;;;;4952181;28;46464;-75
2023/07/18 03:05:10;;;;;;;;;7.33;5.00;;;;;;;;4971580;28;46532;-74
2023/07/18 03:07:36;;;;;;;;;10.33;5.00;;;;;;;;4984135;28;45408;-75
2023/07/18 03:10:01;;;;;;;;;4.00;4.00;;;;;;;;4973383;28;45353;-72
2023/07/18 03:12:26;;;;;;;;;4.00;3.33;;;;;;;;4971682;28;45987;-71
2023/07/18 03:14:52;;;;;;;;;6.00;5.00;;;;;;;;4971237;28;45779;-71
2023/07/18 03:17:17;;;;;;;;;6.00;5.00;;;;;;;;4954045;28;45627;-70
2023/07/18 03:19:42;;;;;;;;;6.33;5.33;;;;;;;;4970433;28;45416;-72
2023/07/18 03:22:07;;;;;;;;;4.00;4.00;;;;;;;;4951477;28;45490;-70
2023/07/18 03:24:33;;;;;;;;;3.00;3.00;;;;;;;;4971152;28;46725;-71
2023/07/18 03:26:59;;;;;;;;;2.33;1.33;;;;;;;;4976167;28;45928;-72
2023/07/18 03:29:24;;;;;;;;;7.33;2.67;;;;;;;;4961290;28;45846;-72
2023/07/18 03:31:49;;;;;;;;;3.67;3.67;;;;;;;;4971091;28;45779;-73
2023/07/18 03:34:15;;;;;;;;;2.67;2.67;;;;;;;;4971016;28;45740;-72
2023/07/18 03:36:40;;;;;;;;;3.00;3.00;;;;;;;;4970620;28;45523;-71
2023/07/18 03:39:05;;;;;;;;;3.00;3.00;;;;;;;;4971023;28;45500;-71
2023/07/18 03:41:31;;;;;;;;;6.67;4.00;;;;;;;;4953134;28;46645;-72
2023/07/18 03:43:56;;;;;;;;;2.67;2.00;;;;;;;;4984246;28;46965;-74
2023/07/18 03:46:22;;;;;;;;;3.00;3.00;;;;;;;;4971318;28;45679;-73
2023/07/18 03:48:47;;;;;;;;;7.00;4.00;;;;;;;;4954008;28;45719;-71
2023/07/18 03:51:14;;;;;;;;;3.00;2.00;;;;;;;;4953266;28;46074;-73
2023/07/18 03:53:39;;;;;;;;;1.00;1.00;;;;;;;;4968893;28;45487;-71
2023/07/18 03:56:06;;;;;;;;;4.33;2.67;;;;;;;;4970175;28;45824;-72
2023/07/18 03:58:31;;;;;;;;;3.00;2.00;;;;;;;;4972001;28;45937;-72
2023/07/18 04:00:56;;;;;;;;;8.33;5.33;;;;;;;;4970263;28;45570;-70
2023/07/18 04:03:22;;;;;;;;;4.33;4.33;;;;;;;;4969322;28;46377;-72
2023/07/18 04:05:47;;;;;;;;;11.00;6.00;;;;;;;;4970409;28;45636;-73
2023/07/18 04:08:12;;;;;;;;;3.33;3.00;;;;;;;;4984545;28;45576;-73
2023/07/18 04:10:37;;;;;;;;;5.00;4.00;;;;;;;;4986981;28;45418;-72
2023/07/18 04:13:03;;;;;;;;;5.33;4.00;;;;;;;;4964152;28;46962;-74
2023/07/18 04:15:28;;;;;;;;;2.67;2.67;;;;;;;;4976391;28;45345;-72
2023/07/18 04:17:54;;;;;;;;;6.33;3.33;;;;;;;;4977733;28;45507;-73
2023/07/18 04:20:19;;;;;;;;;2.00;2.00;;;;;;;;4970649;28;45718;-72
2023/07/18 04:22:44;;;;;;;;;6.00;3.00;;;;;;;;4970142;28;45630;-72
2023/07/18 04:25:10;;;;;;;;;7.00;4.67;;;;;;;;4964571;28;45372;-73
2023/07/18 04:27:35;;;;;;;;;3.33;3.33;;;;;;;;4970562;28;45621;-71
2023/07/18 04:30:00;;;;;;;;;2.33;0.00;;;;;;;;4969470;28;45905;-74
2023/07/18 04:32:25;;;;;;;;;4.67;2.33;;;;;;;;4969913;28;45902;-72
2023/07/18 04:34:51;;;;;;;;;3.33;1.33;;;;;;;;4969179;28;45670;-75
2023/07/18 04:37:16;;;;;;;;;6.00;3.33;;;;;;;;4970025;28;45530;-71
2023/07/18 04:39:41;;;;;;;;;4.67;3.00;;;;;;;;4970153;28;45901;-72
2023/07/18 04:42:07;;;;;;;;;47.33;34.33;;;;;;;;4984449;28;46139;-72
2023/07/18 04:44:33;;;;;;;;;6.00;4.33;;;;;;;;4967842;28;46189;-74
2023/07/18 04:46:58;;;;;;;;;2.67;2.33;;;;;;;;4970019;28;45732;-75
2023/07/18 04:49:24;;;;;;;;;3.00;3.00;;;;;;;;4970083;28;45984;-76
2023/07/18 04:51:51;;;;;;;;;2.33;2.00;;;;;;;;4952058;28;47272;-74
2023/07/18 04:54:16;;;;;;;;;3.00;3.00;;;;;;;;4969642;28;45765;-75
2023/07/18 04:56:41;;;;;;;;;5.00;2.00;;;;;;;;4969409;28;45880;-74
2023/07/18 04:59:06;;;;;;;;;2.00;2.00;;;;;;;;4969353;28;45917;-76
2023/07/18 05:01:32;;;;;;;;;5.67;2.67;;;;;;;;4969483;28;46378;-76
2023/07/18 05:03:57;;;;;;;;;4.00;3.00;;;;;;;;4952316;28;45504;-77
2023/07/18 05:06:23;;;;;;;;;1.67;1.00;;;;;;;;4951677;28;45405;-77
2023/07/18 05:08:48;;;;;;;;;3.33;3.00;;;;;;;;4969722;28;45456;-77
2023/07/18 05:11:22;;;;;;;;;5.00;2.67;;;;;;;;4944565;28;46865;-82
2023/07/18 05:13:47;;;;;;;;;5.67;2.33;;;;;;;;4950036;28;45746;-75
2023/07/18 05:16:13;;;;;;;;;2.33;2.33;;;;;;;;4931025;28;45706;-76
2023/07/18 05:18:38;;;;;;;;;4.00;1.33;;;;;;;;4952955;28;45759;-75
2023/07/18 05:21:03;;;;;;;;;2.33;2.00;;;;;;;;4971065;28;45641;-76
2023/07/18 05:23:28;;;;;;;;;4.00;2.00;;;;;;;;4953850;28;45609;-74
2023/07/18 05:25:56;;;;;;;;;3.33;1.00;;;;;;;;4949298;28;45631;-76
2023/07/18 05:28:21;;;;;;;;;3.00;3.00;;;;;;;;4964607;28;46179;-75
2023/07/18 05:30:46;;;;;;;;;4.33;3.00;;;;;;;;4959928;28;46536;-75
2023/07/18 05:33:12;;;;;;;;;4.00;3.00;;;;;;;;4964802;28;45992;-75
2023/07/18 05:35:40;;;;;;;;;4.00;4.00;;;;;;;;4961499;28;45880;-76
2023/07/18 05:38:11;;;;;;;;;1.50;1.50;;;;;;;;4951888;28;45483;-79
2023/07/18 05:40:37;;;;;;;;;2.50;1.50;;;;;;;;4960287;28;46205;-79
2023/07/18 05:43:04;;;;;;;;;2.75;2.00;;;;;;;;4972362;28;45416;-80
2023/07/18 05:45:30;;;;;;;;;2.00;2.00;;;;;;;;4956310;28;45411;-78
2023/07/18 05:47:56;;;;;;;;;3.00;1.75;;;;;;;;4978449;28;45529;-80
2023/07/18 05:50:25;;;;;;;;;1.00;1.00;;;;;;;;4963118;28;45617;-80
2023/07/18 05:52:52;;;;;;;;;3.50;1.00;;;;;;;;4976095;28;45439;-79
2023/07/18 05:55:20;;;;;;;;;4.00;1.00;;;;;;;;4983973;28;45553;-78
2023/07/18 05:57:47;;;;;;;;;1.00;1.00;;;;;;;;4976802;28;46534;-79
2023/07/18 06:00:33;;;;;;;;;1.00;1.00;;;;;;;;4965644;28;46789;-78
2023/07/18 06:03:08;;;;;;;;;1.50;1.00;;;;;;;;4971001;28;45850;-77
2023/07/18 06:05:39;;;;;;;;;1.75;0.75;;;;;;;;4969192;28;45728;-80
2023/07/18 06:08:14;;;;;;;;;1.75;1.00;;;;;;;;4970937;28;45926;-84
2023/07/18 06:10:41;;;;;;;;;1.00;1.00;;;;;;;;4958219;28;47142;-79
2023/07/18 06:13:07;;;;;;;;;1.00;1.00;;;;;;;;4970630;28;45657;-81
2023/07/18 06:15:32;;;;;;;;;1.75;0.75;;;;;;;;4981846;28;45744;-82
2023/07/18 06:17:57;;;;;;;;;1.00;1.00;;;;;;;;4957884;28;46160;-80
2023/07/18 06:20:23;;;;;;;;;0.25;0.25;;;;;;;;4978694;28;46098;-80
2023/07/18 06:22:48;;;;;;;;;1.00;1.00;;;;;;;;4978512;28;45796;-81
2023/07/18 06:25:15;;;;;;;;;1.00;1.00;;;;;;;;4971293;28;45996;-80
2023/07/18 06:27:40;;;;;;;;;2.75;2.00;;;;;;;;4952519;28;47155;-79
2023/07/18 06:30:06;;;;;;;;;1.75;0.75;;;;;;;;4964954;28;45995;-82
2023/07/18 06:32:31;;;;;;;;;0.00;0.00;;;;;;;;4972034;28;45529;-79
2023/07/18 06:34:56;;;;;;;;;2.00;2.00;;;;;;;;4970846;28;45933;-80
2023/07/18 06:37:22;;;;;;;;;1.00;1.00;;;;;;;;4980737;28;45518;-78
2023/07/18 06:39:50;;;;;;;;;1.50;1.00;;;;;;;;4976629;28;45550;-80
2023/07/18 06:42:15;;;;;;;;;1.75;1.75;;;;;;;;4982872;28;45479;-80
2023/07/18 06:44:41;;;;;;;;;5.00;1.50;;;;;;;;4977063;28;45523;-80
2023/07/18 06:47:06;;;;;;;;;3.00;1.75;;;;;;;;4973494;28;45715;-78
2023/07/18 06:49:32;;;;;;;;;1.25;1.00;;;;;;;;4971079;28;46490;-78
2023/07/18 06:51:58;;;;;;;;;3.00;3.00;;;;;;;;4969225;28;45461;-79
2023/07/18 06:54:23;;;;;;;;;2.25;1.00;;;;;;;;4973174;28;45451;-77
2023/07/18 06:57:22;;;;;;;;;0.75;0.00;;;;;;;;4968798;28;47050;-85
2023/07/18 08:03:24;;;;;;;;;;;;;;;;;;;;;
2023/07/18 08:07:05;;;;;;;;;1.00;1.00;;;;;;;;4876011;28;72317;-85
2023/07/18 08:12:43;;;;;;;;;;;;;;;;;;;;;
2023/07/18 08:15:38;;;;;;;;;1.75;1.75;;;;;;;;4957344;28;75699;-85
2023/07/18 08:18:04;;;;;;;;;3.00;2.00;;;;;;;;4973228;28;44750;-81
2023/07/18 08:20:39;;;;;;;;;2.25;1.00;;;;;;;;4965286;28;45784;-84
2023/07/18 08:23:09;;;;;;;;;4.00;1.25;;;;;;;;4962630;28;46942;-85
2023/07/18 08:32:29;;;;;;;;;2.50;0.50;;;;;;;;4935891;28;45886;-85
2023/07/18 09:07:22;;;;;;;;;;;;;;;;;;;;;
2023/07/18 09:25:26;;;;;;;;;5.00;5.00;;;;;;;;4774604;22;1175571;-77
2023/07/18 09:27:52;;;;;;;;;2.00;2.00;;;;;;;;5012711;28;46485;-72
2023/07/18 09:30:28;;;;;;;;;5.33;3.67;;;;;;;;5005176;28;46000;-71
2023/07/18 09:32:53;;;;;;;;;3.67;2.67;;;;;;;;5001352;28;45410;-70
2023/07/18 09:35:18;;;;;;;;;4.00;4.00;;;;;;;;4993406;28;46050;-72
2023/07/18 09:37:45;;;;;;;;;3.33;3.33;;;;;;;;5009729;28;45776;-73
2023/07/18 09:40:11;;;;;;;;;9.00;5.67;;;;;;;;5006905;28;45374;-71
2023/07/18 09:42:37;;;;;;;;;5.33;4.00;;;;;;;;4998887;28;45537;-73
2023/07/18 09:45:03;;;;;;;;;5.00;4.00;;;;;;;;4997101;28;45876;-72
2023/07/18 09:47:30;;;;;;;;;4.00;4.00;;;;;;;;4996433;28;46076;-72
2023/07/18 09:49:58;;;;;;;;;2.33;1.00;;;;;;;;4989247;28;46149;-73
2023/07/18 09:52:26;;;;;;;;;4.00;2.50;;;;;;;;4995042;28;45760;-72
2023/07/18 09:54:52;;;;;;;;;3.67;2.67;;;;;;;;5007642;28;45911;-76
2023/07/18 09:57:17;;;;;;;;;2.50;2.50;;;;;;;;5008893;28;45762;-74
2023/07/18 09:59:43;;;;;;;;;1.00;1.00;;;;;;;;5002109;28;46516;-73
2023/07/18 10:02:10;;;;;;;;;3.33;3.33;;;;;;;;4994882;28;45883;-72
2023/07/18 10:04:35;;;;;;;;;3.67;3.00;;;;;;;;5010763;28;45689;-74
2023/07/18 10:07:02;;;;;;;;;4.00;3.00;;;;;;;;5013040;28;45539;-74
2023/07/18 10:09:27;;;;;;;;;3.00;2.67;;;;;;;;5010255;28;45658;-73
2023/07/18 10:12:13;;;;;;;;;5.00;3.00;;;;;;;;4994747;28;45722;-71
2023/07/18 10:14:41;;;;;;;;;3.67;3.00;;;;;;;;5001001;28;45807;-71
2023/07/18 10:17:06;;;;;;;;;4.00;4.00;;;;;;;;5004458;28;45811;-69
2023/07/18 10:19:45;;;;;;;;;2.33;2.33;;;;;;;;4986613;28;45935;-71
2023/07/18 10:22:10;;;;;;;;;3.00;3.00;;;;;;;;5005581;28;45551;-70
2023/07/18 10:24:36;;;;;;;;;2.67;2.33;;;;;;;;4987450;28;45550;-70
2023/07/18 10:27:06;;;;;;;;;3.00;3.00;;;;;;;;4998703;28;46193;-65
2023/07/18 10:29:32;;;;;;;;;5.67;2.00;;;;;;;;5012855;28;45459;-69
2023/07/18 10:31:58;;;;;;;;;3.00;1.50;;;;;;;;4992449;28;45653;-71
2023/07/18 10:34:24;;;;;;;;;3.50;2.50;;;;;;;;5010035;28;45681;-72
2023/07/18 10:36:56;;;;;;;;;5.00;2.67;;;;;;;;5000779;28;45394;-71
2023/07/18 10:39:34;;;;;;;;;2.00;2.00;;;;;;;;4992561;28;45790;-71
2023/07/18 10:42:04;;;;;;;;;4.67;3.00;;;;;;;;5009405;28;45715;-71
2023/07/18 10:44:30;;;;;;;;;5.50;2.00;;;;;;;;5002875;28;45546;-71
2023/07/18 10:46:55;;;;;;;;;4.00;3.00;;;;;;;;4989569;28;46151;-70
2023/07/18 10:49:24;;;;;;;;;2.00;2.00;;;;;;;;5001996;28;45811;-70
2023/07/18 10:51:53;;;;;;;;;3.00;2.00;;;;;;;;5006776;28;45884;-70
2023/07/18 10:54:18;;;;;;;;;3.00;2.00;;;;;;;;5007273;28;46072;-70
2023/07/18 10:56:44;;;;;;;;;3.33;2.67;;;;;;;;5002384;28;47483;-70
2023/07/18 10:59:11;;;;;;;;;2.00;2.00;;;;;;;;5003673;28;45855;-69
2023/07/18 11:01:37;;;;;;;;;1.67;1.67;;;;;;;;5003841;28;45453;-70
2023/07/18 11:04:06;;;;;;;;;1.00;1.00;;;;;;;;5010187;28;45536;-71
2023/07/18 11:06:31;;;;;;;;;2.25;2.00;;;;;;;;5005118;28;46893;-72
2023/07/18 11:08:56;;;;;;;;;1.00;1.00;;;;;;;;5004200;28;45480;-69
2023/07/18 11:11:22;;;;;;;;;1.50;1.25;;;;;;;;5005085;28;45485;-71
2023/07/18 11:13:47;;;;;;;;;1.50;1.50;;;;;;;;4993054;28;45546;-70
2023/07/18 11:16:14;;;;;;;;;3.00;2.50;;;;;;;;5004851;28;46108;-70
2023/07/18 11:18:43;;;;;;;;;1.25;1.25;;;;;;;;5010387;28;45752;-70
2023/07/18 11:21:09;;;;;;;;;3.00;1.25;;;;;;;;5006234;28;45568;-73
2023/07/18 11:23:35;;;;;;;;;1.00;1.00;;;;;;;;4998577;28;45911;-70
2023/07/18 11:26:08;;;;;;;;;3.00;1.75;;;;;;;;5010486;28;45925;-69
2023/07/18 11:28:34;;;;;;;;;1.00;1.00;;;;;;;;4992981;28;45329;-70
2023/07/18 11:30:59;;;;;;;;;2.00;1.00;;;;;;;;5011440;28;45702;-71
2023/07/18 11:33:28;;;;;;;;;4.25;2.00;;;;;;;;4992715;28;46509;-71
2023/07/18 11:35:53;;;;;;;;;2.75;1.50;;;;;;;;5011326;28;46987;-71
2023/07/18 11:38:21;;;;;;;;;1.75;1.75;;;;;;;;5011805;28;45387;-70
2023/07/18 11:40:46;;;;;;;;;3.50;1.25;;;;;;;;5011511;28;45915;-71
2023/07/18 11:43:18;;;;;;;;;6.00;1.50;;;;;;;;5008421;28;46506;-71
2023/07/18 11:45:43;;;;;;;;;3.25;1.50;;;;;;;;4989020;28;45451;-71
2023/07/18 11:48:09;;;;;;;;;3.00;2.00;;;;;;;;5009861;28;45355;-72
2023/07/18 11:50:34;;;;;;;;;2.75;2.75;;;;;;;;5011224;28;45586;-69
2023/07/18 11:53:02;;;;;;;;;2.50;2.00;;;;;;;;4994764;28;46292;-72
2023/07/18 11:55:28;;;;;;;;;3.50;2.50;;;;;;;;5011462;28;46325;-71
2023/07/18 11:57:54;;;;;;;;;4.00;3.00;;;;;;;;5054775;23;44867;-86
2023/07/18 12:00:22;;;;;;;;;2.50;2.00;;;;;;;;5049620;28;45755;-85
2023/07/18 12:02:48;;;;;;;;;2.00;2.00;;;;;;;;5029318;28;47283;-88
2023/07/18 12:05:14;;;;;;;;;1.00;1.00;;;;;;;;5039026;28;45535;-85
2023/07/18 12:07:39;;;;;;;;;3.75;2.75;;;;;;;;5041679;28;45360;-82
2023/07/18 12:10:10;;;;;;;;;2.00;2.00;;;;;;;;5045825;28;45338;-84
2023/07/18 12:12:41;;;;;;;;;4.00;3.00;;;;;;;;5021995;28;45721;-88
2023/07/18 12:15:12;;;;;;;;;3.50;2.50;;;;;;;;5046145;28;45929;-83
2023/07/18 12:17:38;;;;;;;;;4.00;2.75;;;;;;;;5022965;28;45678;-85
2023/07/18 12:20:04;;;;;;;;;2.00;2.00;;;;;;;;5040162;28;45743;-82
2023/07/18 12:22:30;;;;;;;;;2.50;2.00;;;;;;;;5039931;28;45479;-85
2023/07/18 12:24:55;;;;;;;;;3.25;2.75;;;;;;;;5044996;28;45339;-84
2023/07/18 12:27:21;;;;;;;;;3.25;2.00;;;;;;;;5041081;28;45334;-82
2023/07/18 12:29:46;;;;;;;;;1.50;1.50;;;;;;;;5033411;28;45391;-82
2023/07/18 12:32:11;;;;;;;;;2.25;2.25;;;;;;;;5034958;28;45434;-83
2023/07/18 12:34:38;;;;;;;;;1.50;1.50;;;;;;;;5039356;28;46004;-85
2023/07/18 12:37:03;;;;;;;;;4.00;2.00;;;;;;;;5032865;28;45840;-84
2023/07/18 12:39:28;;;;;;;;;2.50;2.50;;;;;;;;5041045;28;45392;-82
2023/07/18 12:41:53;;;;;;;;;4.00;2.25;;;;;;;;5029852;28;46567;-82
2023/07/18 12:44:19;;;;;;;;;3.00;3.00;;;;;;;;5034850;28;47095;-82
2023/07/18 12:46:46;;;;;;;;;3.25;3.00;;;;;;;;5041106;28;45571;-82
2023/07/18 12:49:11;;;;;;;;;2.25;2.00;;;;;;;;5017274;28;45820;-84
2023/07/18 12:51:36;;;;;;;;;1.00;0.00;;;;;;;;5035478;28;46099;-84
2023/07/18 12:54:02;;;;;;;;;3.75;3.75;;;;;;;;5036390;28;45564;-85
2023/07/18 12:56:29;;;;;;;;;1.00;1.00;;;;;;;;5033597;28;45633;-85
2023/07/18 12:58:55;;;;;;;;;3.00;3.00;;;;;;;;5017958;28;46067;-83
2023/07/18 13:01:20;;;;;;;;;2.50;2.00;;;;;;;;5019107;28;45565;-84
2023/07/18 13:03:47;;;;;;;;;2.00;1.00;;;;;;;;5034414;28;45454;-84
2023/07/18 13:06:13;;;;;;;;;2.50;2.00;;;;;;;;5031532;28;45734;-84
2023/07/18 13:08:38;;;;;;;;;4.50;3.25;;;;;;;;5042933;28;45451;-84
2023/07/18 13:11:04;;;;;;;;;4.50;2.50;;;;;;;;5035146;28;45546;-85
2023/07/18 13:13:29;;;;;;;;;3.00;2.00;;;;;;;;5038786;28;46553;-84
2023/07/18 13:15:54;;;;;;;;;3.25;2.75;;;;;;;;5040549;28;45438;-82
2023/07/18 13:18:19;;;;;;;;;3.00;3.00;;;;;;;;5040761;28;46104;-84
2023/07/18 13:20:45;;;;;;;;;2.75;2.50;;;;;;;;5016255;28;45475;-83
2023/07/18 13:23:10;;;;;;;;;4.25;3.00;;;;;;;;5030557;28;47234;-83
2023/07/18 13:25:35;;;;;;;;;3.75;3.00;;;;;;;;5017118;28;44813;-82
2023/07/18 13:28:01;;;;;;;;;3.25;3.25;;;;;;;;5046253;28;45644;-84
2023/07/18 13:30:26;;;;;;;;;3.25;3.00;;;;;;;;5039040;28;45476;-85
2023/07/18 13:32:51;;;;;;;;;2.75;2.75;;;;;;;;5036618;28;46749;-83
2023/07/18 13:35:17;;;;;;;;;3.75;2.25;;;;;;;;5029319;28;45551;-84
2023/07/18 13:37:43;;;;;;;;;3.00;3.00;;;;;;;;5028981;28;45799;-84
2023/07/18 13:40:08;;;;;;;;;1.75;1.75;;;;;;;;5016865;28;45479;-83
2023/07/18 13:42:33;;;;;;;;;3.00;2.00;;;;;;;;5021960;28;47544;-82
2023/07/18 13:44:59;;;;;;;;;4.25;2.75;;;;;;;;5036502;28;45678;-80
2023/07/18 13:47:24;;;;;;;;;3.75;2.75;;;;;;;;5024475;28;45934;-83
2023/07/18 13:49:51;;;;;;;;;4.25;3.00;;;;;;;;5022123;28;45993;-84
2023/07/18 13:52:17;;;;;;;;;3.25;2.50;;;;;;;;5026084;28;47471;-81
2023/07/18 13:54:43;;;;;;;;;3.00;3.00;;;;;;;;5042985;28;44958;-82
2023/07/18 13:57:08;;;;;;;;;2.25;2.25;;;;;;;;5036974;28;45388;-83
2023/07/18 13:59:33;;;;;;;;;3.00;3.00;;;;;;;;5035700;28;45944;-80
2023/07/18 14:01:58;;;;;;;;;4.25;3.75;;;;;;;;5040360;28;46267;-85
2023/07/18 14:04:24;;;;;;;;;4.50;2.75;;;;;;;;5044665;28;45483;-86
2023/07/18 14:06:49;;;;;;;;;4.00;4.00;;;;;;;;5025408;28;45373;-81
2023/07/18 14:09:14;;;;;;;;;3.00;2.00;;;;;;;;5042318;28;45638;-81
2023/07/18 14:11:39;;;;;;;;;2.75;2.75;;;;;;;;5038300;28;45678;-84
2023/07/18 14:14:05;;;;;;;;;2.00;2.00;;;;;;;;5048407;28;45566;-83
2023/07/18 14:16:30;;;;;;;;;2.00;2.00;;;;;;;;5047951;28;45710;-82
2023/07/18 14:18:57;;;;;;;;;3.75;2.00;;;;;;;;5038822;28;45751;-83
2023/07/18 14:21:23;;;;;;;;;2.75;2.75;;;;;;;;5004667;28;47203;-83
2023/07/18 14:23:48;;;;;;;;;2.50;2.50;;;;;;;;5042554;28;45519;-83
2023/07/18 14:26:13;;;;;;;;;3.50;1.50;;;;;;;;5016882;28;46106;-83
2023/07/18 14:28:39;;;;;;;;;4.00;2.00;;;;;;;;5036498;28;45802;-83
2023/07/18 14:31:04;;;;;;;;;2.75;2.00;;;;;;;;5018447;28;47331;-84
2023/07/18 14:33:29;;;;;;;;;4.25;2.25;;;;;;;;5039590;28;44745;-85
2023/07/18 14:35:54;;;;;;;;;4.50;3.00;;;;;;;;5041006;28;45545;-83
2023/07/18 14:38:20;;;;;;;;;5.00;3.25;;;;;;;;5037351;28;45539;-84
2023/07/18 14:40:47;;;;;;;;;4.00;2.00;;;;;;;;5052764;28;45966;-84
2023/07/18 14:43:19;;;;;;;;;4.00;1.50;;;;;;;;5024268;28;45674;-85
2023/07/18 14:45:44;;;;;;;;;3.75;2.75;;;;;;;;5032237;28;45529;-86
2023/07/18 14:48:10;;;;;;;;;2.00;2.00;;;;;;;;5021882;28;46211;-85
2023/07/18 14:50:35;;;;;;;;;6.50;2.50;;;;;;;;5040428;28;45756;-83
2023/07/18 14:53:00;;;;;;;;;3.75;2.75;;;;;;;;5024218;28;45791;-82
2023/07/18 14:55:26;;;;;;;;;3.75;3.75;;;;;;;;5037905;28;45454;-84
2023/07/18 14:57:51;;;;;;;;;3.00;3.00;;;;;;;;5015581;28;45786;-83
2023/07/18 15:00:18;;;;;;;;;3.00;3.00;;;;;;;;5050969;28;47308;-82
2023/07/18 15:02:43;;;;;;;;;4.75;2.00;;;;;;;;5047053;28;45499;-83
2023/07/18 15:05:09;;;;;;;;;3.00;3.00;;;;;;;;5044379;28;44750;-82
2023/07/18 15:07:34;;;;;;;;;5.25;4.00;;;;;;;;5043208;28;45616;-84
2023/07/18 15:09:59;;;;;;;;;3.50;3.50;;;;;;;;5041535;28;45880;-84
2023/07/18 15:12:24;;;;;;;;;3.00;3.00;;;;;;;;5041386;28;46254;-84
2023/07/18 15:14:50;;;;;;;;;3.00;3.00;;;;;;;;5042440;28;45624;-84
2023/07/18 15:17:15;;;;;;;;;2.00;2.00;;;;;;;;5040897;28;45366;-82
2023/07/18 15:19:40;;;;;;;;;4.50;4.00;;;;;;;;5037809;28;46712;-81
2023/07/18 15:22:05;;;;;;;;;3.75;3.00;;;;;;;;5037724;28;45291;-80
2023/07/18 15:24:31;;;;;;;;;2.00;1.50;;;;;;;;5024078;28;45693;-82
2023/07/18 15:26:56;;;;;;;;;5.25;5.00;;;;;;;;5022269;28;47322;-83
2023/07/18 15:29:21;;;;;;;;;2.50;1.75;;;;;;;;5021259;28;46334;-82
2023/07/18 15:31:46;;;;;;;;;3.25;3.25;;;;;;;;5040664;28;45451;-83
2023/07/18 15:34:12;;;;;;;;;3.00;3.00;;;;;;;;5037215;28;45787;-84
2023/07/18 15:36:37;;;;;;;;;20.33;19.33;;;;;;;;5020618;28;46822;-84
2023/07/18 15:39:02;;;;;;;;;5.75;5.75;;;;;;;;5022778;28;47058;-82
2023/07/18 15:41:28;;;;;;;;;6.00;5.00;;;;;;;;5019662;28;45784;-82
2023/07/18 15:43:53;;;;;;;;;5.00;4.50;;;;;;;;5044365;28;45282;-83
2023/07/18 15:46:18;;;;;;;;;9.00;7.00;;;;;;;;5045447;28;45513;-85
2023/07/18 15:48:44;;;;;;;;;37.33;32.67;;;;;;;;5022901;28;46490;-85
2023/07/18 15:51:12;;;;;;;;;7.50;4.50;;;;;;;;5048280;28;45767;-85
2023/07/18 15:53:38;;;;;;;;;3.25;3.00;;;;;;;;5032866;28;45467;-82
2023/07/18 15:56:03;;;;;;;;;5.25;5.25;;;;;;;;5047960;28;45443;-83
2023/07/18 15:58:29;;;;;;;;;7.00;7.00;;;;;;;;5051994;28;45450;-82
2023/07/18 16:00:56;;;;;;;;;7.00;5.00;;;;;;;;5021838;28;45746;-83
2023/07/18 16:03:21;;;;;;;;;6.33;6.33;;;;;;;;5037650;28;45557;-83
2023/07/18 16:05:47;;;;;;;;;3.50;3.50;;;;;;;;5037317;28;45885;-85
2023/07/18 16:08:14;;;;;;;;;8.75;7.00;;;;;;;;5048502;28;48128;-85
2023/07/18 16:10:40;;;;;;;;;7.75;7.75;;;;;;;;5019401;28;45411;-83
2023/07/18 16:13:05;;;;;;;;;5.25;4.25;;;;;;;;5037514;28;45545;-78
2023/07/18 16:15:30;;;;;;;;;1.75;1.75;;;;;;;;5033099;28;45519;-75
2023/07/18 16:17:56;;;;;;;;;5.25;4.00;;;;;;;;5031435;28;45491;-77
2023/07/18 16:20:21;;;;;;;;;16.67;13.67;;;;;;;;5012565;28;45782;-79
2023/07/18 16:22:47;;;;;;;;;13.00;13.00;;;;;;;;5031208;28;45993;-77
2023/07/18 16:25:13;;;;;;;;;8.25;8.25;;;;;;;;5031530;28;45660;-78
2023/07/18 16:27:38;;;;;;;;;14.00;13.00;;;;;;;;5011852;28;46286;-78
2023/07/18 16:30:03;;;;;;;;;7.75;7.75;;;;;;;;5028059;28;45807;-76
2023/07/18 16:32:29;;;;;;;;;4.00;4.00;;;;;;;;5029399;28;45773;-80
2023/07/18 16:34:54;;;;;;;;;5.00;4.00;;;;;;;;5032470;28;45496;-80
2023/07/18 16:37:21;;;;;;;;;9.00;6.75;;;;;;;;5012082;28;47858;-78
2023/07/18 16:39:46;;;;;;;;;5.00;5.00;;;;;;;;5030527;28;46539;-78
2023/07/18 16:42:13;;;;;;;;;5.50;5.50;;;;;;;;5042005;28;45831;-79